Airfield :
LOGIN :

Register | Disclaimer

   EN    FR    IT 

 










Legend :    VFR   Marginal VFR   IFR   Intensive IFR   Very Intensive IFR
Visi :
Ceiling :
>= 8 km
>= 3000ft
5 to 8 km
1000 to 3000 ft
1500m to 5 km
500 to 1000 ft
800 to 1500m
200 to 500 ft
< 800m
< 200 ft
Symbols :   Thunderstorms  Fog  Heavy snow  Heavy precipitations  Wind > 20 kt
SIGMETs :     Misc.  Thunderstorms  Icing  Turbulence  Mountain Waves  Volcanic Ashes







- Airport Elevation : 194 ft
- IATA code : ANE
- Download approach charts


LFJR - Angers Marcé

CURRENT METAR :
  • 222330Z AUTO 32005KT 270V360 CAVOK 19/14 Q1018

EXPIRED METARs :
  • 222300Z AUTO 34006KT 310V010 CAVOK 20/15 Q1018
  • 222230Z AUTO 33004KT 290V360 CAVOK 21/15 Q1017
  • 222200Z AUTO 34006KT 300V360 CAVOK 21/16 Q1017
  • 222130Z AUTO 34006KT 310V010 CAVOK 22/16 Q1017
  • 222100Z AUTO 34004KT CAVOK 23/17 Q1016

Expired Forecast.
No reported NOTAMs for that airfield.



MET'MAP, your aeronautical weather chart ! - Copyright ORBIFLY December 2007 - Disclaimer

ORBIFLY MET'MAP TEAM :

Programming & Development : Alexandra Zaïnal
Concept & Development : Baudouin d'Aumeries
Co-Development & Prog : Marc-Olivier Méhu
Technical & hardware support : Manuel Goepfert

Contact : metmap@orbifly.com




SOURCES & CREDITS :

   NOAA